Time;durP1;ratioP1;P1;durP2;ratioP2;P2;SDS_P1;SDS_P2;PMS_P1;PMS_P2;Temp;Humidity;BMP_temperature;BMP_pressure;BME280_temperature;BME280_humidity;BME280_pressure;Samples;Min_cycle;Max_cycle;Signal;HPM_P1;HPM_P2
2021/08/08 00:01:24;;;;;;;5.30;4.80;;;18.20;99.90;;;;;;5077815;28;20453;-76
2021/08/08 00:03:50;;;;;;;5.17;3.53;;;18.20;99.90;;;;;;5078402;28;20469;-76
2021/08/08 00:06:17;;;;;;;4.33;3.80;;;18.20;99.90;;;;;;5077581;28;20458;-76
2021/08/08 00:08:44;;;;;;;4.07;3.67;;;18.20;99.90;;;;;;5077694;28;20455;-76
2021/08/08 00:11:11;;;;;;;4.40;3.40;;;18.20;99.90;;;;;;5077856;28;20553;-76
2021/08/08 00:13:39;;;;;;;5.30;3.40;;;18.20;99.90;;;;;;5078188;28;20474;-75
2021/08/08 00:16:06;;;;;;;3.87;3.00;;;18.20;99.90;;;;;;5078049;28;20458;-76
2021/08/08 00:18:33;;;;;;;3.20;2.90;;;18.20;99.90;;;;;;5078197;28;20479;-76
2021/08/08 00:20:59;;;;;;;3.50;3.30;;;18.20;99.90;;;;;;5077998;28;20466;-76
2021/08/08 00:23:26;;;;;;;3.40;3.10;;;18.20;99.90;;;;;;5077585;28;20914;-76
2021/08/08 00:25:53;;;;;;;3.53;3.00;;;18.20;99.90;;;;;;5077370;28;20458;-76
2021/08/08 00:28:19;;;;;;;3.63;3.33;;;18.20;99.90;;;;;;5078202;28;20557;-76
2021/08/08 00:30:48;;;;;;;3.50;3.20;;;18.20;99.90;;;;;;5077495;28;20458;-76
2021/08/08 00:33:14;;;;;;;3.53;3.10;;;18.20;99.90;;;;;;5077071;28;20454;-76
2021/08/08 00:35:42;;;;;;;3.60;3.30;;;18.20;99.90;;;;;;5076957;28;20458;-75
2021/08/08 00:38:09;;;;;;;5.20;3.20;;;18.20;99.90;;;;;;5078139;28;20484;-76
2021/08/08 00:40:36;;;;;;;3.57;3.27;;;18.20;99.90;;;;;;5077281;28;20486;-76
2021/08/08 00:43:03;;;;;;;2.90;2.63;;;18.10;99.90;;;;;;5077681;28;20481;-76
2021/08/08 00:45:30;;;;;;;3.53;3.07;;;18.10;99.90;;;;;;5077769;28;20459;-75
2021/08/08 00:47:58;;;;;;;3.33;3.13;;;18.10;99.90;;;;;;5077455;28;20936;-76
2021/08/08 00:50:25;;;;;;;3.00;2.70;;;18.10;99.90;;;;;;5078163;28;20462;-76
2021/08/08 00:52:51;;;;;;;3.13;2.83;;;18.10;99.90;;;;;;5077920;28;20450;-76
2021/08/08 00:55:18;;;;;;;3.13;2.63;;;18.10;99.90;;;;;;5077655;28;20462;-76
2021/08/08 00:57:45;;;;;;;3.20;2.93;;;18.10;99.90;;;;;;5078017;28;20466;-75
2021/08/08 01:00:13;;;;;;;5.63;3.00;;;18.10;99.90;;;;;;5077972;28;20474;-76
2021/08/08 01:02:48;;;;;;;3.10;2.80;;;18.10;99.90;;;;;;5078018;28;20895;-75
2021/08/08 01:05:21;;;;;;;2.90;2.70;;;18.00;99.90;;;;;;5078534;28;20449;-76
2021/08/08 01:07:53;;;;;;;2.90;2.70;;;18.00;99.90;;;;;;5078174;28;20445;-75
2021/08/08 01:10:20;;;;;;;4.63;3.50;;;18.00;99.90;;;;;;5077523;28;20438;-75
2021/08/08 01:12:49;;;;;;;3.37;2.53;;;18.00;99.90;;;;;;5077347;28;20458;-76
2021/08/08 01:15:16;;;;;;;3.20;2.90;;;17.90;99.90;;;;;;5077849;28;20760;-76
2021/08/08 01:17:44;;;;;;;3.63;2.90;;;17.90;99.90;;;;;;5077992;28;20817;-75
2021/08/08 01:20:13;;;;;;;5.93;3.60;;;17.90;99.90;;;;;;5078060;28;20478;-75
2021/08/08 01:22:44;;;;;;;3.10;2.80;;;17.90;99.90;;;;;;5077247;28;20458;-75
2021/08/08 01:25:14;;;;;;;2.90;2.70;;;17.90;99.90;;;;;;5076393;28;20454;-75
2021/08/08 01:27:41;;;;;;;5.40;2.73;;;17.90;99.90;;;;;;5075624;28;20458;-75
2021/08/08 01:30:09;;;;;;;3.03;2.83;;;17.90;99.90;;;;;;5075730;28;20454;-75
2021/08/08 01:32:36;;;;;;;3.10;2.90;;;17.80;99.90;;;;;;5075366;28;20560;-75
2021/08/08 01:35:04;;;;;;;4.13;2.80;;;17.80;99.90;;;;;;5075347;28;20472;-75
2021/08/08 01:37:32;;;;;;;2.80;2.60;;;17.80;99.90;;;;;;5075795;28;20454;-75
2021/08/08 01:40:03;;;;;;;3.70;3.40;;;17.70;99.90;;;;;;5075589;28;20486;-75
2021/08/08 01:42:32;;;;;;;3.93;3.10;;;17.70;99.90;;;;;;5076088;28;20442;-75
2021/08/08 01:45:01;;;;;;;3.43;3.13;;;17.70;99.90;;;;;;5076097;28;20541;-75
2021/08/08 01:47:30;;;;;;;4.20;3.30;;;17.70;99.90;;;;;;5075860;28;20454;-75
2021/08/08 01:49:59;;;;;;;3.73;3.17;;;17.70;99.90;;;;;;5076527;28;20504;-75
2021/08/08 01:52:26;;;;;;;2.80;2.60;;;17.60;99.90;;;;;;5075885;28;20513;-75
2021/08/08 01:54:55;;;;;;;3.17;2.87;;;17.60;99.90;;;;;;5076633;28;20795;-76
2021/08/08 01:57:21;;;;;;;3.63;3.33;;;17.60;99.90;;;;;;5077682;28;20481;-76
2021/08/08 01:59:50;;;;;;;3.87;3.57;;;17.50;99.90;;;;;;5076996;28;20482;-75
2021/08/08 02:02:17;;;;;;;3.90;3.17;;;17.50;99.90;;;;;;5076262;28;20469;-75
2021/08/08 02:04:46;;;;;;;3.77;3.20;;;17.50;99.90;;;;;;5076035;28;20446;-76
2021/08/08 02:07:15;;;;;;;3.60;3.30;;;17.50;99.90;;;;;;5075779;28;20458;-75
2021/08/08 02:09:42;;;;;;;8.70;3.40;;;17.50;99.90;;;;;;5076274;28;20458;-75
2021/08/08 02:12:10;;;;;;;4.20;3.33;;;17.50;99.90;;;;;;5074872;28;20573;-75
2021/08/08 02:14:36;;;;;;;3.20;2.87;;;17.50;99.90;;;;;;5075171;28;20458;-75
2021/08/08 02:17:06;;;;;;;6.23;3.30;;;17.50;99.90;;;;;;5075452;28;20455;-75
2021/08/08 02:19:32;;;;;;;4.47;3.33;;;17.40;99.90;;;;;;5075259;28;20478;-75
2021/08/08 02:22:01;;;;;;;3.83;3.03;;;17.40;99.90;;;;;;5075292;28;20461;-75
2021/08/08 02:24:29;;;;;;;5.87;3.87;;;17.40;99.90;;;;;;5074570;28;20454;-76
2021/08/08 02:26:56;;;;;;;3.90;3.30;;;17.30;99.90;;;;;;5075852;28;20560;-76
2021/08/08 02:29:23;;;;;;;3.93;3.37;;;17.30;99.90;;;;;;5075471;28;20537;-74
2021/08/08 02:31:50;;;;;;;3.97;2.93;;;17.30;99.90;;;;;;5075009;28;20454;-74
2021/08/08 02:34:18;;;;;;;5.40;3.40;;;17.30;99.90;;;;;;5075630;28;20462;-76
2021/08/08 02:36:45;;;;;;;3.30;3.00;;;17.30;99.90;;;;;;5075011;28;20947;-76
2021/08/08 02:39:17;;;;;;;4.40;2.93;;;17.30;99.90;;;;;;5074370;28;20958;-76
2021/08/08 02:41:44;;;;;;;3.00;2.70;;;17.30;99.90;;;;;;5075398;28;20469;-76
2021/08/08 02:44:11;;;;;;;3.50;3.20;;;17.30;99.90;;;;;;5075081;28;20458;-76
2021/08/08 02:46:37;;;;;;;4.73;3.53;;;17.30;99.90;;;;;;5075430;28;20807;-76
2021/08/08 02:49:04;;;;;;;3.43;3.13;;;17.30;99.90;;;;;;5075056;28;20918;-75
2021/08/08 02:51:32;;;;;;;4.03;3.40;;;17.30;99.90;;;;;;5075176;28;20469;-75
2021/08/08 02:54:02;;;;;;;3.60;2.80;;;17.30;99.90;;;;;;5074859;28;20462;-75
2021/08/08 02:56:29;;;;;;;3.03;2.73;;;17.30;99.90;;;;;;5074921;28;20454;-75
2021/08/08 02:58:55;;;;;;;3.27;2.97;;;17.30;99.90;;;;;;5075029;28;20785;-75
2021/08/08 03:01:22;;;;;;;3.43;3.13;;;17.40;99.90;;;;;;5075328;28;20465;-77
2021/08/08 03:03:49;;;;;;;3.67;3.00;;;17.40;99.90;;;;;;5074657;28;20454;-75
2021/08/08 03:06:18;;;;;;;4.73;2.93;;;17.40;99.90;;;;;;5074637;28;20454;-76
2021/08/08 03:08:47;;;;;;;3.33;3.03;;;17.40;99.90;;;;;;5075067;28;20461;-75
2021/08/08 03:11:14;;;;;;;3.50;3.07;;;17.40;99.90;;;;;;5074534;28;20456;-75
2021/08/08 03:13:41;;;;;;;8.20;3.30;;;17.40;99.90;;;;;;5074980;28;20532;-75
2021/08/08 03:16:08;;;;;;;4.20;3.17;;;17.40;99.90;;;;;;5075333;28;20469;-76
2021/08/08 03:18:35;;;;;;;4.27;3.17;;;17.40;99.90;;;;;;5078588;28;20458;-76
2021/08/08 03:21:02;;;;;;;3.50;2.80;;;17.40;99.90;;;;;;5078272;28;20482;-76
2021/08/08 03:23:29;;;;;;;3.70;3.30;;;17.40;99.90;;;;;;5078229;28;20465;-76
2021/08/08 03:25:58;;;;;;;3.40;3.10;;;17.40;99.90;;;;;;5078132;28;20454;-76
2021/08/08 03:28:24;;;;;;;4.10;3.27;;;17.40;99.90;;;;;;5078337;28;20458;-76
2021/08/08 03:30:51;;;;;;;5.30;3.40;;;17.50;99.90;;;;;;5077514;28;20461;-76
2021/08/08 03:33:18;;;;;;;2.90;2.60;;;17.50;99.90;;;;;;5077877;28;20462;-76
2021/08/08 03:35:45;;;;;;;6.27;3.17;;;17.50;99.90;;;;;;5077581;28;20454;-76
2021/08/08 03:38:12;;;;;;;3.77;2.90;;;17.50;99.90;;;;;;5077771;28;20473;-77
2021/08/08 03:40:38;;;;;;;6.20;3.40;;;17.60;99.90;;;;;;5077124;28;20490;-76
2021/08/08 03:43:06;;;;;;;3.30;3.00;;;17.50;99.90;;;;;;5077707;28;20949;-76
2021/08/08 03:45:33;;;;;;;5.10;3.50;;;17.60;99.90;;;;;;5077741;28;20458;-76
2021/08/08 03:48:00;;;;;;;3.27;2.93;;;17.60;99.90;;;;;;5077692;28;20469;-76
2021/08/08 03:50:27;;;;;;;7.00;2.97;;;17.60;99.90;;;;;;5077276;28;20476;-76
2021/08/08 03:52:54;;;;;;;3.40;3.20;;;17.60;99.90;;;;;;5077136;28;20532;-76
2021/08/08 03:55:21;;;;;;;3.07;2.77;;;17.60;99.90;;;;;;5077876;28;20454;-76
2021/08/08 03:57:47;;;;;;;3.23;3.00;;;17.60;99.90;;;;;;5077351;28;20955;-76
2021/08/08 04:00:16;;;;;;;4.37;2.97;;;17.60;99.90;;;;;;5077107;28;20481;-76
2021/08/08 04:02:43;;;;;;;4.30;2.87;;;17.60;99.90;;;;;;5077253;28;20458;-76
2021/08/08 04:05:10;;;;;;;4.43;4.03;;;17.60;99.90;;;;;;5077904;28;20442;-76
2021/08/08 04:07:37;;;;;;;2.87;2.63;;;17.50;99.90;;;;;;5078065;28;20901;-76
2021/08/08 04:10:04;;;;;;;3.27;2.97;;;17.50;99.90;;;;;;5077502;28;20458;-77
2021/08/08 04:12:31;;;;;;;3.87;2.80;;;17.40;99.90;;;;;;5077629;28;20458;-76
2021/08/08 04:14:58;;;;;;;3.20;3.00;;;17.40;99.90;;;;;;5077928;28;20541;-76
2021/08/08 04:17:26;;;;;;;3.47;3.10;;;17.40;99.90;;;;;;5077098;28;20455;-75
2021/08/08 04:19:53;;;;;;;5.90;3.20;;;17.40;99.90;;;;;;5077181;28;20492;-76
2021/08/08 04:22:20;;;;;;;3.63;3.17;;;17.30;99.90;;;;;;5077090;28;20583;-76
2021/08/08 04:24:46;;;;;;;2.73;2.53;;;17.40;99.90;;;;;;5077518;28;20462;-76
2021/08/08 04:27:13;;;;;;;3.67;3.20;;;17.40;99.90;;;;;;5076713;28;20557;-77
2021/08/08 04:29:40;;;;;;;2.97;2.70;;;17.40;99.90;;;;;;5077291;28;20872;-76
2021/08/08 04:32:08;;;;;;;7.80;3.00;;;17.40;99.90;;;;;;5077127;28;20458;-76
2021/08/08 04:34:36;;;;;;;3.07;2.87;;;17.40;99.90;;;;;;5077589;28;20454;-75
2021/08/08 04:37:03;;;;;;;3.90;3.07;;;17.50;99.90;;;;;;5076839;28;20468;-76
2021/08/08 04:39:30;;;;;;;6.40;2.70;;;17.50;99.90;;;;;;5076786;28;20508;-74
2021/08/08 04:41:58;;;;;;;2.53;2.33;;;17.50;99.90;;;;;;5077432;28;20458;-75
2021/08/08 04:44:24;;;;;;;3.93;2.80;;;17.50;99.90;;;;;;5077168;28;20469;-75
2021/08/08 04:46:51;;;;;;;4.33;2.50;;;17.60;99.90;;;;;;5076901;28;20472;-74
2021/08/08 04:49:18;;;;;;;2.90;2.60;;;17.60;99.90;;;;;;5077583;28;20458;-76
2021/08/08 04:51:46;;;;;;;2.67;2.47;;;17.60;99.90;;;;;;5076360;28;20465;-76
2021/08/08 04:54:13;;;;;;;7.03;2.20;;;17.60;99.90;;;;;;5075907;28;20469;-77
2021/08/08 04:56:40;;;;;;;4.20;2.60;;;17.60;99.90;;;;;;5076231;28;20473;-76
2021/08/08 04:59:06;;;;;;;3.10;2.20;;;17.60;99.90;;;;;;5076382;28;20454;-76
2021/08/08 05:01:33;;;;;;;2.30;2.10;;;17.60;99.90;;;;;;5076476;28;20482;-76
2021/08/08 05:04:00;;;;;;;2.67;2.20;;;17.60;99.90;;;;;;5076012;28;20573;-76
2021/08/08 05:06:27;;;;;;;2.80;2.50;;;17.60;99.90;;;;;;5076390;28;20450;-76
2021/08/08 05:08:55;;;;;;;3.97;2.20;;;17.60;99.90;;;;;;5077122;28;20451;-77
2021/08/08 05:11:22;;;;;;;1.80;1.63;;;17.60;99.90;;;;;;5077663;28;20462;-75
2021/08/08 05:13:48;;;;;;;5.03;2.43;;;17.60;99.90;;;;;;5077507;28;20560;-77
2021/08/08 05:16:15;;;;;;;2.43;1.67;;;17.60;99.90;;;;;;5077175;28;20547;-77
2021/08/08 05:18:42;;;;;;;2.50;1.80;;;17.60;99.90;;;;;;5077633;28;20461;-77
2021/08/08 05:21:09;;;;;;;3.80;2.20;;;17.60;99.90;;;;;;5079335;28;20482;-77
2021/08/08 05:23:36;;;;;;;1.80;1.70;;;17.60;99.90;;;;;;5077607;28;20458;-77
2021/08/08 05:26:05;;;;;;;2.70;1.93;;;17.60;99.90;;;;;;5078721;28;20462;-77
2021/08/08 05:28:32;;;;;;;2.90;1.90;;;17.70;99.90;;;;;;5079532;28;20462;-77
2021/08/08 05:30:59;;;;;;;2.30;1.87;;;17.70;99.90;;;;;;5079307;28;20485;-77
2021/08/08 05:33:26;;;;;;;3.40;2.23;;;17.70;99.90;;;;;;5078590;28;20459;-77
2021/08/08 05:35:52;;;;;;;1.90;1.77;;;17.70;99.90;;;;;;5079539;28;20588;-77
2021/08/08 05:38:20;;;;;;;1.90;1.70;;;17.70;99.90;;;;;;5080338;28;20454;-77
2021/08/08 05:40:47;;;;;;;2.40;2.10;;;17.70;99.90;;;;;;5079222;28;20481;-77
2021/08/08 05:43:15;;;;;;;2.07;1.40;;;17.80;99.90;;;;;;5076508;28;20903;-77
2021/08/08 05:45:46;;;;;;;2.77;1.50;;;17.80;99.90;;;;;;5076213;28;20462;-77
2021/08/08 05:48:13;;;;;;;2.20;1.73;;;17.90;99.90;;;;;;5075931;28;20439;-77
2021/08/08 05:50:39;;;;;;;2.17;1.60;;;17.80;99.90;;;;;;5075756;28;20454;-77
2021/08/08 05:53:06;;;;;;;3.20;1.70;;;17.80;99.90;;;;;;5077252;28;20461;-77
2021/08/08 05:55:36;;;;;;;2.53;1.57;;;17.80;99.90;;;;;;5077142;28;20465;-76
2021/08/08 05:58:03;;;;;;;2.47;1.87;;;17.80;99.90;;;;;;5075382;28;20453;-75
2021/08/08 06:00:31;;;;;;;1.73;1.37;;;17.90;99.90;;;;;;5075619;28;20466;-76
2021/08/08 06:02:57;;;;;;;2.87;1.50;;;17.90;99.90;;;;;;5075507;28;20463;-76
2021/08/08 06:05:24;;;;;;;1.63;1.53;;;17.90;99.90;;;;;;5075472;28;20465;-76
2021/08/08 06:07:51;;;;;;;2.07;1.50;;;18.00;99.90;;;;;;5075454;28;20468;-76
2021/08/08 06:10:18;;;;;;;1.50;1.40;;;18.00;99.90;;;;;;5075873;28;20465;-75
2021/08/08 06:12:44;;;;;;;2.03;1.60;;;18.00;99.90;;;;;;5075101;28;20461;-76
2021/08/08 06:15:12;;;;;;;1.93;1.53;;;18.10;99.90;;;;;;5075272;28;20458;-76
2021/08/08 06:17:40;;;;;;;2.17;1.50;;;18.10;99.90;;;;;;5076461;28;20788;-77
2021/08/08 06:20:08;;;;;;;2.47;1.50;;;18.10;99.90;;;;;;5075789;28;20462;-77
2021/08/08 06:22:35;;;;;;;1.70;1.57;;;18.20;99.90;;;;;;5075507;28;20451;-77
2021/08/08 06:25:02;;;;;;;2.23;1.77;;;18.20;99.90;;;;;;5075703;28;20461;-77
2021/08/08 06:27:29;;;;;;;2.00;1.80;;;18.30;99.90;;;;;;5075207;28;20469;-77
2021/08/08 06:29:56;;;;;;;2.23;1.67;;;18.30;99.90;;;;;;5075152;28;20459;-77
2021/08/08 06:32:22;;;;;;;2.77;1.47;;;18.40;99.90;;;;;;5075485;28;20556;-77
2021/08/08 06:34:50;;;;;;;1.73;1.50;;;18.40;99.90;;;;;;5075224;28;20494;-76
2021/08/08 06:37:17;;;;;;;1.83;1.50;;;18.40;99.90;;;;;;5075568;28;20788;-77
2021/08/08 06:39:44;;;;;;;1.70;1.60;;;18.40;99.90;;;;;;5074810;28;20520;-76
2021/08/08 06:42:11;;;;;;;1.50;1.40;;;18.50;99.90;;;;;;5074935;28;20501;-77
2021/08/08 06:44:37;;;;;;;2.83;2.07;;;18.50;99.90;;;;;;5076001;28;20799;-77
2021/08/08 06:47:04;;;;;;;1.70;1.47;;;18.60;99.90;;;;;;5074475;28;20465;-77
2021/08/08 06:49:31;;;;;;;2.87;1.50;;;18.70;99.90;;;;;;5075022;28;20814;-77
2021/08/08 06:52:00;;;;;;;1.83;1.50;;;18.70;99.90;;;;;;5077722;28;20461;-77
2021/08/08 06:54:26;;;;;;;7.93;1.40;;;18.70;99.90;;;;;;5079372;28;20454;-76
2021/08/08 06:56:53;;;;;;;2.30;1.67;;;18.80;99.90;;;;;;5079331;28;20482;-76
2021/08/08 06:59:20;;;;;;;3.00;1.60;;;18.90;99.90;;;;;;5079223;28;20465;-77
2021/08/08 07:01:47;;;;;;;2.80;1.30;;;18.90;99.90;;;;;;5080583;28;20488;-76
2021/08/08 07:04:14;;;;;;;2.07;1.50;;;18.90;99.90;;;;;;5080035;28;20458;-76
2021/08/08 07:06:40;;;;;;;4.60;1.70;;;19.00;99.90;;;;;;5079765;28;20472;-75
2021/08/08 07:09:09;;;;;;;1.37;1.20;;;19.10;99.90;;;;;;5079637;28;20454;-75
2021/08/08 07:11:36;;;;;;;2.47;1.50;;;19.20;99.90;;;;;;5079815;28;20493;-76
2021/08/08 07:14:03;;;;;;;4.23;1.20;;;19.20;99.90;;;;;;5079584;28;20522;-75
2021/08/08 07:16:30;;;;;;;2.33;1.23;;;19.30;99.90;;;;;;5080153;28;20454;-76
2021/08/08 07:18:56;;;;;;;1.53;1.20;;;19.40;99.90;;;;;;5079798;28;20450;-76
2021/08/08 07:21:23;;;;;;;3.57;1.40;;;19.50;99.90;;;;;;5079792;28;20969;-76
2021/08/08 07:23:50;;;;;;;1.30;1.10;;;19.50;99.90;;;;;;5079788;28;20469;-76
2021/08/08 07:26:18;;;;;;;11.10;1.17;;;19.60;99.90;;;;;;5078370;28;20458;-77
2021/08/08 07:28:45;;;;;;;2.07;1.30;;;19.60;99.90;;;;;;5078467;28;20480;-76
2021/08/08 07:31:12;;;;;;;1.43;1.00;;;19.70;99.90;;;;;;5078585;28;20561;-76
2021/08/08 07:33:38;;;;;;;1.47;1.10;;;19.70;99.90;;;;;;5078069;28;20462;-77
2021/08/08 07:36:05;;;;;;;1.20;1.10;;;19.80;99.90;;;;;;5077848;28;20528;-77
2021/08/08 07:38:32;;;;;;;1.67;1.13;;;19.90;99.90;;;;;;5078327;28;20461;-76
2021/08/08 07:40:59;;;;;;;1.67;1.27;;;20.00;99.90;;;;;;5077579;28;20497;-77
2021/08/08 07:43:27;;;;;;;1.33;1.10;;;20.00;99.90;;;;;;5077980;28;20469;-76
2021/08/08 07:45:54;;;;;;;3.77;1.10;;;20.10;99.90;;;;;;5078533;28;20466;-76
2021/08/08 07:48:20;;;;;;;1.87;1.17;;;20.20;99.90;;;;;;5078112;28;20943;-77
2021/08/08 07:50:47;;;;;;;2.10;1.13;;;20.30;99.90;;;;;;5077499;28;20454;-77
2021/08/08 07:53:14;;;;;;;1.90;1.23;;;20.30;99.90;;;;;;5077342;28;20462;-76
2021/08/08 07:55:40;;;;;;;3.80;1.10;;;20.30;99.90;;;;;;5077630;28;20458;-77
2021/08/08 07:58:07;;;;;;;1.10;0.90;;;20.30;99.90;;;;;;5077180;28;20453;-77
2021/08/08 08:00:35;;;;;;;1.47;1.23;;;20.30;99.90;;;;;;5077273;28;20458;-77
2021/08/08 08:03:02;;;;;;;1.10;0.93;;;20.30;99.90;;;;;;5075660;28;20454;-77
2021/08/08 08:05:28;;;;;;;1.50;1.00;;;20.30;99.90;;;;;;5077032;28;20462;-77
2021/08/08 08:07:55;;;;;;;1.00;0.70;;;20.40;99.90;;;;;;5077149;28;20458;-76
2021/08/08 08:10:22;;;;;;;1.43;0.90;;;20.40;99.90;;;;;;5077155;28;20454;-76
2021/08/08 08:12:49;;;;;;;1.30;1.10;;;20.50;99.90;;;;;;5078224;28;20458;-76
2021/08/08 08:15:15;;;;;;;1.83;1.00;;;20.60;99.90;;;;;;5077942;28;20458;-75
2021/08/08 08:17:44;;;;;;;1.20;1.00;;;20.70;99.90;;;;;;5077875;28;20473;-76
2021/08/08 08:20:12;;;;;;;1.00;0.70;;;20.70;99.90;;;;;;5077373;28;20465;-76
2021/08/08 08:22:39;;;;;;;1.70;0.90;;;20.70;99.90;;;;;;5076816;28;20470;-74
2021/08/08 08:25:07;;;;;;;1.50;1.10;;;20.70;99.90;;;;;;5076542;28;20457;-75
2021/08/08 08:27:33;;;;;;;1.60;1.00;;;20.80;99.90;;;;;;5076751;28;20568;-75
2021/08/08 08:30:00;;;;;;;2.73;1.10;;;20.80;99.90;;;;;;5077474;28;20462;-76
2021/08/08 08:32:27;;;;;;;2.13;1.00;;;20.90;99.90;;;;;;5076613;28;20488;-76
2021/08/08 08:34:55;;;;;;;1.60;1.10;;;21.00;99.90;;;;;;5077044;28;20465;-75
2021/08/08 08:37:22;;;;;;;1.60;1.10;;;21.10;99.90;;;;;;5076620;28;20793;-78
2021/08/08 08:39:49;;;;;;;2.17;1.20;;;21.10;99.90;;;;;;5077654;28;20492;-77
2021/08/08 08:42:19;;;;;;;1.33;1.07;;;21.10;99.90;;;;;;5077863;28;20482;-77
2021/08/08 08:44:46;;;;;;;1.63;1.00;;;21.20;99.90;;;;;;5077257;28;20465;-77
2021/08/08 08:47:16;;;;;;;2.13;0.83;;;21.40;99.90;;;;;;5077183;28;20461;-75
2021/08/08 08:49:46;;;;;;;2.50;1.13;;;21.40;99.90;;;;;;5078817;28;20453;-79
2021/08/08 08:52:21;;;;;;;4.80;0.80;;;21.50;99.90;;;;;;5077507;28;20481;-77
2021/08/08 08:54:48;;;;;;;1.40;1.17;;;21.60;99.90;;;;;;5077189;28;20453;-75
2021/08/08 08:57:15;;;;;;;3.13;1.10;;;21.60;99.90;;;;;;5076662;28;20801;-77
2021/08/08 08:59:42;;;;;;;1.87;1.00;;;21.50;99.90;;;;;;5076637;28;20486;-76
2021/08/08 09:02:09;;;;;;;1.90;1.43;;;21.40;99.90;;;;;;5076188;28;20482;-76
2021/08/08 09:04:36;;;;;;;1.50;1.30;;;21.40;99.90;;;;;;5075975;28;20549;-76
2021/08/08 09:07:04;;;;;;;1.60;1.10;;;21.40;99.90;;;;;;5075994;28;20531;-76
2021/08/08 09:09:34;;;;;;;2.80;1.20;;;21.50;99.90;;;;;;5076123;28;20458;-76
2021/08/08 09:12:01;;;;;;;3.43;1.37;;;21.60;99.90;;;;;;5076194;28;20451;-76
2021/08/08 09:14:28;;;;;;;1.33;1.20;;;21.60;99.90;;;;;;5076489;28;20458;-76
2021/08/08 09:16:55;;;;;;;2.77;1.10;;;21.50;99.90;;;;;;5076718;28;20510;-77
2021/08/08 09:19:24;;;;;;;1.40;1.30;;;21.60;99.90;;;;;;5076085;28;20911;-76
2021/08/08 09:21:51;;;;;;;1.50;1.20;;;21.60;99.90;;;;;;5075948;28;20474;-76
2021/08/08 09:24:26;;;;;;;1.70;1.20;;;21.70;99.90;;;;;;5075670;28;20558;-76
2021/08/08 09:27:07;;;;;;;3.00;1.30;;;21.90;99.90;;;;;;5075527;28;20438;-75
2021/08/08 09:29:34;;;;;;;1.50;1.30;;;22.00;99.90;;;;;;5075500;28;20442;-77
2021/08/08 09:32:02;;;;;;;3.10;0.93;;;22.00;99.90;;;;;;5078136;28;20857;-74
2021/08/08 09:34:31;;;;;;;1.50;1.30;;;22.10;99.90;;;;;;5079417;28;20454;-77
2021/08/08 09:36:59;;;;;;;3.17;1.10;;;22.10;99.90;;;;;;5079697;28;20868;-76
2021/08/08 09:39:28;;;;;;;12.53;1.60;;;22.20;99.90;;;;;;5076360;28;20504;-77
2021/08/08 09:42:13;;;;;;;1.17;0.93;;;22.30;99.90;;;;;;5076055;28;20517;-75
2021/08/08 09:44:52;;;;;;;1.77;1.10;;;22.40;99.90;;;;;;5076116;28;20445;-75
2021/08/08 09:47:19;;;;;;;1.40;1.07;;;22.40;99.90;;;;;;5075861;28;20457;-77
2021/08/08 09:49:59;;;;;;;1.40;0.90;;;22.20;99.90;;;;;;5075504;28;20454;-77
2021/08/08 09:52:26;;;;;;;1.37;1.17;;;22.10;99.90;;;;;;5075571;28;20435;-77
2021/08/08 09:54:53;;;;;;;1.20;1.00;;;22.10;99.90;;;;;;5075641;28;20793;-76
2021/08/08 09:57:21;;;;;;;1.57;1.47;;;22.20;99.90;;;;;;5075815;28;20750;-77
2021/08/08 09:59:48;;;;;;;1.23;1.07;;;22.20;99.90;;;;;;5075893;28;20464;-76
2021/08/08 10:02:20;;;;;;;1.33;1.00;;;22.20;99.90;;;;;;5075306;28;20470;-76
2021/08/08 10:04:47;;;;;;;7.67;1.37;;;22.10;99.90;;;;;;5075561;28;20500;-76
2021/08/08 10:07:15;;;;;;;3.57;1.10;;;22.10;99.90;;;;;;5074973;28;20560;-76
2021/08/08 10:09:43;;;;;;;1.30;1.13;;;22.10;99.90;;;;;;5075337;28;20765;-76
2021/08/08 10:12:30;;;;;;;1.40;1.10;;;22.10;99.90;;;;;;5074657;28;20770;-75
2021/08/08 10:14:58;;;;;;;1.53;1.10;;;22.20;99.90;;;;;;5074585;28;20449;-77
2021/08/08 10:17:26;;;;;;;2.27;1.00;;;22.30;99.90;;;;;;5074208;28;20473;-76
2021/08/08 10:19:55;;;;;;;1.40;1.10;;;22.40;99.90;;;;;;5074687;28;20925;-76
2021/08/08 10:22:24;;;;;;;1.50;1.10;;;22.50;99.90;;;;;;5074615;28;20493;-76
2021/08/08 10:24:53;;;;;;;1.77;1.00;;;22.60;99.90;;;;;;5074333;28;20454;-75
2021/08/08 10:27:22;;;;;;;1.10;0.90;;;22.60;99.90;;;;;;5078371;28;20462;-76
2021/08/08 10:29:51;;;;;;;1.97;1.27;;;22.50;99.90;;;;;;5078652;28;20545;-76
2021/08/08 10:32:18;;;;;;;1.20;0.90;;;22.40;99.90;;;;;;5078607;28;20455;-76
2021/08/08 10:34:45;;;;;;;3.23;1.30;;;22.50;99.90;;;;;;5078763;28;20787;-77
2021/08/08 10:37:13;;;;;;;2.70;1.10;;;22.50;99.90;;;;;;5078579;28;20466;-76
2021/08/08 10:39:41;;;;;;;1.50;1.20;;;22.50;99.90;;;;;;5078248;28;20501;-77
2021/08/08 10:42:08;;;;;;;2.17;1.30;;;22.40;99.90;;;;;;5078270;28;20486;-75
2021/08/08 10:44:46;;;;;;;1.80;1.10;;;22.30;99.90;;;;;;5078476;28;20792;-76
2021/08/08 10:47:24;;;;;;;1.83;1.07;;;22.20;99.90;;;;;;5078756;28;20494;-76
2021/08/08 10:49:51;;;;;;;2.17;1.13;;;22.30;99.90;;;;;;5078847;28;20434;-75
2021/08/08 10:52:18;;;;;;;1.43;1.00;;;22.40;99.90;;;;;;5078183;28;20763;-76
2021/08/08 10:54:47;;;;;;;1.83;1.23;;;22.30;99.90;;;;;;5077297;28;20453;-77
2021/08/08 10:57:15;;;;;;;1.97;1.40;;;22.30;99.90;;;;;;5077473;28;20515;-76
2021/08/08 10:59:46;;;;;;;1.60;1.10;;;22.30;99.90;;;;;;5077726;28;20464;-76
2021/08/08 11:02:15;;;;;;;1.30;1.20;;;22.30;99.90;;;;;;5077402;28;20980;-76
2021/08/08 11:04:43;;;;;;;2.03;1.60;;;22.40;99.90;;;;;;5077569;28;20462;-76
2021/08/08 11:07:11;;;;;;;2.13;1.30;;;22.50;99.90;;;;;;5077804;28;20926;-76
2021/08/08 11:09:39;;;;;;;1.30;1.10;;;22.60;99.90;;;;;;5078001;28;20496;-77
2021/08/08 11:12:07;;;;;;;1.70;1.20;;;22.70;99.90;;;;;;5077386;28;20485;-77
2021/08/08 11:14:34;;;;;;;1.60;1.20;;;22.70;99.90;;;;;;5077405;28;20457;-77
2021/08/08 11:17:03;;;;;;;1.50;1.10;;;22.70;99.90;;;;;;5077721;28;20458;-76
2021/08/08 11:19:36;;;;;;;1.30;1.00;;;22.60;99.90;;;;;;5077156;28;20458;-75
2021/08/08 11:22:08;;;;;;;3.23;1.93;;;22.50;99.90;;;;;;5077057;28;20949;-77
2021/08/08 11:24:35;;;;;;;2.57;1.60;;;22.50;99.90;;;;;;5077479;28;20458;-76
2021/08/08 11:27:02;;;;;;;3.03;1.70;;;22.60;99.90;;;;;;5077521;28;20541;-77
2021/08/08 11:29:29;;;;;;;4.00;1.43;;;22.70;99.90;;;;;;5077333;28;20545;-76
2021/08/08 11:31:59;;;;;;;3.63;1.60;;;22.70;99.90;;;;;;5077387;28;20768;-76
2021/08/08 11:34:27;;;;;;;2.17;1.60;;;23.00;99.90;;;;;;5077321;28;20739;-76
2021/08/08 11:36:56;;;;;;;1.80;1.40;;;23.20;99.90;;;;;;5076049;28;20551;-75
2021/08/08 11:39:29;;;;;;;4.17;1.40;;;23.20;99.90;;;;;;5076452;28;20494;-74
2021/08/08 11:42:00;;;;;;;1.70;1.43;;;23.20;99.90;;;;;;5076938;28;20442;-76
2021/08/08 11:44:36;;;;;;;2.70;1.33;;;23.50;99.90;;;;;;5078827;28;20442;-76
2021/08/08 11:47:02;;;;;;;2.60;1.00;;;24.10;99.90;;;;;;5078492;28;20446;-77
2021/08/08 11:49:31;;;;;;;1.40;1.03;;;24.80;99.90;;;;;;5076661;28;20463;-77
2021/08/08 11:52:01;;;;;;;3.17;1.37;;;25.20;99.90;;;;;;5076594;28;20856;-76
2021/08/08 11:54:29;;;;;;;2.23;1.07;;;25.20;99.90;;;;;;5077524;28;20454;-76
2021/08/08 11:56:56;;;;;;;3.50;1.70;;;25.20;99.90;;;;;;5077128;28;20454;-77
2021/08/08 11:59:27;;;;;;;1.70;1.07;;;25.50;99.90;;;;;;5076534;28;20540;-76
2021/08/08 12:01:58;;;;;;;1.93;1.10;;;26.20;99.90;;;;;;5076065;28;20483;-77
2021/08/08 12:04:25;;;;;;;1.73;1.00;;;26.20;99.90;;;;;;5076880;28;20454;-76
2021/08/08 12:06:53;;;;;;;1.30;1.20;;;25.60;99.90;;;;;;5076539;28;20849;-76
2021/08/08 12:09:22;;;;;;;3.33;1.20;;;25.40;99.90;;;;;;5076354;28;20512;-77
2021/08/08 12:11:51;;;;;;;1.53;1.10;;;25.40;99.90;;;;;;5076450;28;20791;-76
2021/08/08 12:14:28;;;;;;;2.63;1.67;;;25.80;99.90;;;;;;5076513;28;20838;-76
2021/08/08 12:17:01;;;;;;;1.50;1.00;;;25.90;99.90;;;;;;5076404;28;20457;-76
2021/08/08 12:19:29;;;;;;;3.50;1.30;;;25.80;99.90;;;;;;5076081;28;20453;-77
2021/08/08 12:22:02;;;;;;;1.80;1.10;;;25.50;99.90;;;;;;5076295;28;20454;-76
2021/08/08 12:24:36;;;;;;;1.43;0.97;;;25.40;99.90;;;;;;5076873;28;20470;-75
2021/08/08 12:27:03;;;;;;;3.80;0.93;;;25.10;99.90;;;;;;5076896;28;20734;-75
2021/08/08 12:29:33;;;;;;;2.17;1.07;;;25.10;99.90;;;;;;5075699;28;20545;-75
2021/08/08 12:32:12;;;;;;;3.53;1.90;;;25.80;99.90;;;;;;5075563;28;20458;-75
2021/08/08 12:34:39;;;;;;;2.47;1.10;;;26.50;99.90;;;;;;5075396;28;20549;-75
2021/08/08 12:37:08;;;;;;;1.43;1.07;;;26.90;99.90;;;;;;5075978;28;20851;-76
2021/08/08 12:39:37;;;;;;;1.53;1.10;;;26.90;99.90;;;;;;5075424;28;20667;-75
2021/08/08 12:42:15;;;;;;;3.50;1.57;;;27.10;99.90;;;;;;5074989;28;20469;-75
2021/08/08 12:44:43;;;;;;;3.57;1.00;;;27.50;99.30;;;;;;5075351;28;20442;-76
2021/08/08 12:47:10;;;;;;;2.53;1.07;;;27.60;97.60;;;;;;5075403;28;20485;-74
2021/08/08 12:49:39;;;;;;;4.13;1.20;;;27.20;96.60;;;;;;5074949;28;20504;-75
2021/08/08 12:52:07;;;;;;;5.40;1.07;;;26.70;96.80;;;;;;5074739;28;20455;-73